• Join FlightAware (Why Join?)
  • Login
  • US Flag 
01:52PM EDT


 

Airport Tracker/Info


-or-


 

Live Flight TrackerFlight Track Log ✈ UAL3841 ✈ 21-Jun-2013 ✈ KORD - KSDF

Flight Track Log - Related Links

Times and Time Zones

All times are in EDT time to prevent confusion due to time zone crossing. See the UAL3841 flight status page for this flight to view local times or setup timezone preferences in your user account.

Time Position Orientation Groundspeed Altitude Reporting Facility
EDT Latitude Longitude Course Direction KTS MPH feet Rate Location/Type
05:43PM 41.9333 -87.9167 253° West 139 160 2,700  Level Chicago TRACON
05:43PM 41.9167 -87.9667 246° West 207 238 3,800 1,560 Climbing Chicago TRACON
05:44PM 41.9167 -88.0500 270° West 241 277 5,700 1,800 Climbing Chicago TRACON
05:45PM 41.8841 -88.3126 255° West  Level FlightAware Approximate
05:46PM 41.8412 -88.4442 255° West  Level FlightAware Approximate
05:46PM 41.9014 -88.2153 263° West 247 284 9,200  Level Chicago Center
05:47PM 41.8114 -88.5829 254° West  Level FlightAware Approximate
05:47PM 41.8936 -88.3092 264° West 253 291 10,900  Level Chicago Center
05:48PM 41.7807 -88.7213 253° West  Level FlightAware Approximate
05:48PM 41.8644 -88.4375 253° West 305 351 12,100  Level Chicago Center
05:49PM 41.8394 -88.5497 253° West 317 365 13,700 1,320 Climbing Chicago Center
05:51PM 41.8117 -88.6642 252° West 325 374 14,900 1,200 Climbing Chicago Center
05:52PM 41.7825 -88.7833 252° West 338 389 16,200 1,320 Climbing Chicago Center
05:53PM 41.7467 -88.9314 252° West 349 402 17,700 1,260 Climbing Chicago Center
05:54PM 41.7167 -89.0556 252° West 355 409 18,900 1,140 Climbing Chicago Center
05:55PM 41.6856 -89.1811 252° West 358 412 20,100 1,200 Climbing Chicago Center
05:56PM 41.6550 -89.3108 253° West 367 422 21,400 1,320 Climbing Chicago Center
05:57PM 41.6172 -89.4656 252° West 368 423 22,900 1,200 Climbing Chicago Center
05:58PM 41.5892 -89.5819 252° West 369 425 23,900 480 Climbing Chicago Center
05:59PM 41.5558 -89.7144 251° West 377 434 24,000  Climbing Chicago Center
06:00PM 41.5128 -89.8858 252° West 405 466 24,000  Level Chicago Center
06:01PM 41.4744 -90.0314 251° West 416 479 24,000  Level Chicago Center
06:02PM 41.3717 -90.1167 212° Southwest 443 510 24,000  Level Chicago Center
06:03PM 41.2633 -90.1906 207° Southwest 440 506 24,000  Level Chicago Center
06:04PM 41.1536 -90.2678 208° Southwest 447 514 24,000  Level Chicago Center
06:05PM 41.0317 -90.3108 195° South 458 527 24,000  Level Chicago Center
06:06PM 40.8825 -90.3225 183° South 452 520 24,000  Level Chicago Center
06:07PM 40.7617 -90.3322 183° South 444 511 24,000  Level Chicago Center
06:08PM 40.6386 -90.3428 184° South 445 512 24,000  Level Chicago Center
06:09PM 40.5142 -90.3528 183° South 452 520 24,000  Level Chicago Center
06:10PM 40.3672 -90.3658 184° South 446 513 24,000  Level Chicago Center
06:11PM 40.2700 -90.3717 183° South 442 509 24,000  Level Kansas City Center
06:12PM 40.1478 -90.3575 175° South 444 511 24,000  Level Kansas City Center
06:13PM 40.0356 -90.2786 152° Southeast 458 527 24,000  Level Kansas City Center
06:14PM 39.9222 -90.1983 151° Southeast 463 533 24,000  Level Kansas City Center
06:15PM 39.8094 -90.1178 151° Southeast 463 533 24,000  Level Kansas City Center
06:16PM 39.6797 -90.0267 152° Southeast 462 532 24,000  Level Kansas City Center
06:17PM 39.5658 -89.9467 152° Southeast 463 533 24,000  Level Kansas City Center
06:18PM 39.4511 -89.8661 152° Southeast 466 536 24,000  Level Kansas City Center
06:19PM 39.3372 -89.7878 152° Southeast 463 533 24,000  Level Kansas City Center
06:20PM 39.2244 -89.7083 151° Southeast 462 532 24,000  Level Kansas City Center
06:21PM 39.0925 -89.6178 152° Southeast 448 516 24,000  Level Kansas City Center
06:22PM 38.9819 -89.5417 152° Southeast 449 517 24,000  Level Kansas City Center
06:23PM 38.8625 -89.4589 152° Southeast 451 519 24,000  Level Kansas City Center
06:24PM 38.7514 -89.3833 152° Southeast 451 519 24,000  Level Kansas City Center
06:25PM 38.6542 -89.2672 137° Southeast 448 516 24,000 -180 Level Kansas City Center
06:27PM 38.6133 -89.1181 109° East 444 511 23,700 -540 Descending Kansas City Center
06:28PM 38.5747 -88.9653 108° East 448 516 23,000 -360 Descending Kansas City Center
06:29PM 38.5322 -88.8008 108° East 452 520 23,000  Level Kansas City Center
06:30PM 38.4933 -88.6533 109° East 451 519 23,000  Level Kansas City Center
06:31PM 38.4508 -88.4869 108° East 449 517 23,000  Level Kansas City Center
06:32PM 38.4094 -88.3372 109° East 447 514 23,000  Level Kansas City Center
06:33PM 38.3731 -88.1836 107° East 450 518 23,000  Level Kansas City Center
06:34PM 38.3664 -88.0250 93° East 445 512 23,000  Level Kansas City Center
06:35PM 38.3583 -87.8647 94° East 450 518 23,000  Level Kansas City Center
06:36PM 38.3506 -87.7061 94° East 448 516 23,000  Level Kansas City Center
06:37PM 38.3425 -87.5492 94° East 443 510 23,000 -180 Level Kansas City Center
06:38PM 38.3308 -87.3303 94° East 445 512 22,700 -1,020 Descending Indianapolis Center
06:39PM 38.3144 -87.1778 98° East 435 501 20,800 -1,920 Descending Indianapolis Center
06:40PM 38.2967 -87.0386 99° East 428 493 18,800 -2,280 Descending Indianapolis Center
06:41PM 38.2758 -86.8706 99° East 414 476 16,100 -2,400 Descending Indianapolis Center
06:42PM 38.2589 -86.7394 99° East 381 438 13,900 -2,280 Descending Indianapolis Center
06:43PM 38.2431 -86.6072 99° East 378 435 11,500 -1,800 Descending Indianapolis Center
06:44PM 38.2644 -86.4817 78° East 371 427 10,200 -780 Descending Indianapolis Center
06:45PM 38.2806 -86.3581 81° East 355 409 10,000 -120 Descending Indianapolis Center
06:46PM 38.3028 -86.2344 77° East 359 413 10,000 -360 Level Indianapolis Center
06:47PM 38.3200 -86.1364 77° East 286 329 9,300 -1,620 Descending Indianapolis Center
06:48PM 38.3394 -86.0256 77° East 268 308 6,700 -2,340 Descending Indianapolis Center
06:49PM 38.3428 -85.9328 87° East 278 320 4,500 -2,040 Descending Indianapolis Center
06:51PM 38.3178 -85.8469 110° East 265 305 2,600 -1,860 Descending Indianapolis Center